Time;durP1;ratioP1;P1;durP2;ratioP2;P2;SDS_P1;SDS_P2;PMS_P1;PMS_P2;Temp;Humidity;BMP_temperature;BMP_pressure;BME280_temperature;BME280_humidity;BME280_pressure;Samples;Min_cycle;Max_cycle;Signal;HPM_P1;HPM_P2
2023/05/25 00:01:53;;;;;;;6.70;4.50;;;;;;;16.89;65.40;99417.25;107512;1254;60420;-40
2023/05/25 00:04:25;;;;;;;8.30;5.20;;;;;;;16.89;65.54;99418.02;107682;1257;74372;-39
2023/05/25 00:06:53;;;;;;;7.90;4.90;;;;;;;16.87;65.93;99416.17;107540;1254;68392;-40
2023/05/25 00:09:21;;;;;;;8.30;5.10;;;;;;;16.86;65.99;99413.42;107455;1253;72628;-40
2023/05/25 00:11:49;;;;;;;7.60;5.30;;;;;;;16.85;65.11;99414.69;107508;1254;60501;-40
2023/05/25 00:14:16;;;;;;;6.90;5.10;;;;;;;16.82;65.01;99410.09;107631;1253;60501;-39
2023/05/25 00:16:47;;;;;;;6.40;4.40;;;;;;;16.81;65.22;99412.36;107312;1254;73837;-40
2023/05/25 00:19:17;;;;;;;7.70;4.60;;;;;;;16.85;65.28;99412.65;107581;1254;67591;-40
2023/05/25 00:21:47;;;;;;;10.50;5.40;;;;;;;16.89;65.47;99412.47;107505;1254;72714;-41
2023/05/25 00:24:15;;;;;;;7.40;5.50;;;;;;;16.89;66.16;99410.52;107481;1254;60363;-40
2023/05/25 00:26:42;;;;;;;7.10;5.40;;;;;;;16.89;66.41;99409.34;107507;1254;60105;-40
2023/05/25 00:29:11;;;;;;;8.40;6.10;;;;;;;16.87;66.43;99411.63;107504;1254;72532;-40
2023/05/25 00:31:39;;;;;;;8.50;6.00;;;;;;;16.83;66.20;99407.81;107473;1259;67601;-40
2023/05/25 00:34:07;;;;;;;8.50;6.50;;;;;;;16.82;65.54;99407.35;107502;1254;71425;-40
2023/05/25 00:36:35;;;;;;;12.50;7.00;;;;;;;16.81;65.01;99400.64;107494;1257;60380;-40
2023/05/25 00:39:03;;;;;;;11.60;7.80;;;;;;;16.80;64.69;99403.30;107535;1254;60287;-40
2023/05/25 00:41:30;;;;;;;12.30;7.10;;;;;;;16.76;64.58;99400.57;107377;1254;73894;-40
2023/05/25 00:43:58;;;;;;;10.60;6.30;;;;;;;16.74;64.52;99399.19;107619;1253;66582;-40
2023/05/25 00:46:26;;;;;;;10.60;6.20;;;;;;;16.76;64.53;99395.66;107505;1254;71394;-40
2023/05/25 00:48:55;;;;;;;11.00;7.20;;;;;;;16.80;64.51;99397.50;107476;1254;60460;-40
2023/05/25 00:51:22;;;;;;;10.70;7.40;;;;;;;16.82;64.43;99402.51;107488;1254;60420;-40
2023/05/25 00:53:50;;;;;;;9.20;7.10;;;;;;;16.84;64.55;99404.36;107488;1255;72657;-41
2023/05/25 00:56:27;;;;;;;13.30;7.60;;;;;;;16.84;64.47;99404.75;107478;1257;67412;-40
2023/05/25 00:58:55;;;;;;;9.20;6.90;;;;;;;16.83;64.64;99403.36;107532;1259;71359;-40
2023/05/25 01:01:25;;;;;;;11.10;7.80;;;;;;;16.81;64.95;99404.06;107479;1256;60604;-40
2023/05/25 01:03:53;;;;;;;12.10;7.60;;;;;;;16.79;65.24;99403.39;107547;1254;60425;-40
2023/05/25 01:06:21;;;;;;;11.60;6.60;;;;;;;16.79;65.42;99402.83;107286;1254;73847;-40
2023/05/25 01:08:52;;;;;;;8.20;6.50;;;;;;;16.83;65.52;99398.58;107508;1254;67918;-40
2023/05/25 01:11:21;;;;;;;11.80;7.10;;;;;;;16.87;65.60;99404.51;107464;1254;72658;-41
2023/05/25 01:13:52;;;;;;;9.00;6.90;;;;;;;16.90;65.48;99404.34;107484;1253;60428;-40
2023/05/25 01:16:19;;;;;;;9.70;6.90;;;;;;;16.87;65.27;99399.48;107414;1254;60362;-40
2023/05/25 01:18:47;;;;;;;10.50;7.70;;;;;;;16.88;65.15;99397.86;107490;1254;73844;-40
2023/05/25 01:21:25;;;;;;;12.70;7.10;;;;;;;16.86;64.95;99398.10;107615;1254;68079;-41
2023/05/25 01:24:10;;;;;;;11.10;7.40;;;;;;;16.84;65.16;99400.92;107520;1254;70940;-41
2023/05/25 01:26:46;;;;;;;8.70;7.00;;;;;;;16.79;65.10;99399.00;107493;1254;60385;-41
2023/05/25 01:29:14;;;;;;;10.00;7.30;;;;;;;16.73;65.03;99396.92;107302;1254;60063;-40
2023/05/25 01:31:42;;;;;;;11.00;7.20;;;;;;;16.69;65.04;99398.52;107479;1259;72608;-40
2023/05/25 01:34:10;;;;;;;11.60;7.20;;;;;;;16.70;65.17;99397.09;107495;1254;67896;-40
2023/05/25 01:36:40;;;;;;;8.60;6.70;;;;;;;16.73;65.32;99401.30;107612;1253;71375;-40
2023/05/25 01:39:10;;;;;;;10.60;7.00;;;;;;;16.73;65.62;99397.93;107615;1254;60322;-40
2023/05/25 01:41:37;;;;;;;10.20;7.20;;;;;;;16.73;66.26;99398.95;107531;1257;60856;-40
2023/05/25 01:44:06;;;;;;;8.60;7.30;;;;;;;16.71;66.58;99398.40;107610;1253;73207;-40
2023/05/25 01:46:38;;;;;;;9.50;7.70;;;;;;;16.69;66.18;99396.16;107519;1254;67871;-40
2023/05/25 01:49:41;;;;;;;9.70;7.40;;;;;;;16.66;66.03;99401.50;107434;1257;71428;-39
2023/05/25 01:52:17;;;;;;;8.30;7.40;;;;;;;16.63;66.01;99411.59;107149;1254;60402;-39
2023/05/25 01:54:47;;;;;;;9.80;6.80;;;;;;;16.59;66.11;99411.94;107376;1254;60037;-39
2023/05/25 01:57:15;;;;;;;;;;;;;;;16.61;65.88;99414.02;107514;1258;72640;-39
2023/05/25 01:59:45;;;;;;;11.60;7.40;;;;;;;16.58;65.78;99408.71;107520;1254;66625;-40
2023/05/25 02:02:15;;;;;;;12.00;8.00;;;;;;;16.54;66.02;99408.64;107383;1259;72700;-40
2023/05/25 02:04:43;;;;;;;11.30;8.20;;;;;;;16.53;66.13;99415.45;107536;1255;60568;-40
2023/05/25 02:07:10;;;;;;;9.30;7.70;;;;;;;16.52;65.94;99414.11;107524;1254;60022;-40
2023/05/25 02:09:38;;;;;;;11.40;8.00;;;;;;;16.52;65.92;99414.11;107589;1253;73851;-40
2023/05/25 02:12:07;;;;;;;10.80;8.00;;;;;;;16.51;65.88;99416.46;107413;1254;67582;-40
2023/05/25 02:14:34;;;;;;;10.00;8.00;;;;;;;16.48;65.93;99419.91;107552;1257;72789;-40
2023/05/25 02:17:02;;;;;;;10.20;7.20;;;;;;;16.44;65.93;99415.72;107400;1254;60403;-40
2023/05/25 02:19:30;;;;;;;8.90;6.80;;;;;;;16.46;65.72;99419.30;107483;1257;60328;-40
2023/05/25 02:21:58;;;;;;;9.70;7.40;;;;;;;16.50;65.65;99418.19;107611;1254;73804;-40
2023/05/25 02:24:26;;;;;;;8.50;7.60;;;;;;;16.51;65.72;99422.88;107569;1254;66382;-40
2023/05/25 02:26:53;;;;;;;10.60;8.00;;;;;;;16.51;66.00;99420.14;107572;1253;72769;-39
2023/05/25 02:29:21;;;;;;;12.80;8.00;;;;;;;16.50;66.49;99418.19;107559;1254;60406;-40
2023/05/25 02:31:49;;;;;;;9.80;8.20;;;;;;;16.48;66.41;99414.68;107378;1254;60770;-40
2023/05/25 02:34:17;;;;;;;15.00;9.10;;;;;;;16.46;66.29;99418.45;107408;1254;73951;-39
2023/05/25 02:36:45;;;;;;;10.80;8.90;;;;;;;16.44;66.42;99420.88;107598;1254;66619;-40
2023/05/25 02:39:13;;;;;;;16.90;8.90;;;;;;;16.46;66.75;99422.75;107568;1253;70628;-39
2023/05/25 02:41:42;;;;;;;12.70;8.20;;;;;;;16.50;66.53;99422.88;107573;1254;60383;-39
2023/05/25 02:44:09;;;;;;;14.60;9.10;;;;;;;16.54;66.28;99420.91;107566;1253;60366;-40
2023/05/25 02:46:37;;;;;;;15.00;9.50;;;;;;;16.56;65.97;99423.17;107276;1253;73867;-39
2023/05/25 02:49:05;;;;;;;12.60;9.30;;;;;;;16.59;66.37;99419.48;107597;1254;66444;-39
2023/05/25 02:51:34;;;;;;;11.50;8.80;;;;;;;16.63;66.45;99420.44;107493;1254;71382;-40
2023/05/25 02:54:02;;;;;;;15.10;9.80;;;;;;;16.64;66.57;99420.50;107586;1254;60291;-40
2023/05/25 02:56:30;;;;;;;13.40;9.80;;;;;;;16.65;66.32;99419.26;107524;1257;59211;-40
2023/05/25 02:58:59;;;;;;;13.70;10.20;;;;;;;16.65;66.17;99419.10;107514;1254;72611;-39
2023/05/25 03:01:33;;;;;;;13.80;10.20;;;;;;;16.66;66.22;99419.80;107589;1253;66563;-40
2023/05/25 03:04:01;;;;;;;14.80;10.20;;;;;;;16.72;66.20;99421.33;107505;1258;72674;-40
2023/05/25 03:06:35;;;;;;;14.20;10.60;;;;;;;16.79;66.01;99422.61;107558;1253;60220;-40
2023/05/25 03:09:15;;;;;;;18.00;11.20;;;;;;;16.84;66.13;99426.89;107523;1253;60578;-40
2023/05/25 03:11:44;;;;;;;16.00;11.20;;;;;;;16.88;66.10;99426.64;107410;1259;71776;-40
2023/05/25 03:14:14;;;;;;;13.70;10.90;;;;;;;16.92;66.05;99425.67;107506;1254;66629;-40
2023/05/25 03:16:45;;;;;;;13.30;10.50;;;;;;;16.95;66.07;99424.89;107497;1254;71368;-40
2023/05/25 03:19:14;;;;;;;13.40;10.80;;;;;;;16.99;65.91;99424.31;107606;1253;60513;-40
2023/05/25 03:21:41;;;;;;;14.60;10.20;;;;;;;16.99;65.89;99423.37;107439;1254;60313;-40
2023/05/25 03:24:09;;;;;;;16.30;10.40;;;;;;;17.01;65.97;99423.13;107417;1254;73962;-39
2023/05/25 03:26:37;;;;;;;14.00;9.70;;;;;;;17.09;65.86;99424.02;107496;1254;67916;-40
2023/05/25 03:29:05;;;;;;;13.70;9.60;;;;;;;17.17;65.80;99420.52;107485;1254;70396;-40
2023/05/25 03:31:33;;;;;;;13.30;10.40;;;;;;;17.22;65.66;99419.23;107576;1254;60533;-40
2023/05/25 03:34:03;;;;;;;13.40;9.90;;;;;;;17.26;65.68;99424.69;107550;1254;60296;-40
2023/05/25 03:36:32;;;;;;;11.70;9.10;;;;;;;17.30;65.72;99427.31;107520;1254;72550;-40
2023/05/25 03:39:00;;;;;;;13.90;9.60;;;;;;;17.35;65.58;99428.92;107495;1254;67640;-40
2023/05/25 03:41:28;;;;;;;14.70;10.40;;;;;;;17.40;65.51;99432.73;107652;1257;71380;-39
2023/05/25 03:43:56;;;;;;;12.70;9.90;;;;;;;17.46;65.23;99432.05;107565;1258;60316;-39
2023/05/25 03:46:24;;;;;;;15.10;10.10;;;;;;;17.49;64.94;99429.67;107415;1254;60516;-39
2023/05/25 03:48:55;;;;;;;12.70;9.50;;;;;;;17.55;64.62;99428.06;107524;1253;73096;-39
2023/05/25 03:51:23;;;;;;;15.50;10.90;;;;;;;17.60;64.29;99428.59;107514;1256;67587;-39
2023/05/25 03:53:51;;;;;;;13.90;10.60;;;;;;;17.60;64.24;99427.58;107489;1254;72736;-39
2023/05/25 03:56:18;;;;;;;17.70;10.50;;;;;;;17.58;64.45;99429.52;107508;1253;60292;-39
2023/05/25 03:58:46;;;;;;;16.30;10.90;;;;;;;17.58;64.44;99430.15;107407;1259;60393;-39
2023/05/25 04:01:15;;;;;;;13.40;9.90;;;;;;;17.58;64.19;99430.08;107557;1258;72885;-39
2023/05/25 04:03:43;;;;;;;15.60;10.40;;;;;;;17.58;64.28;99431.56;107592;1254;66321;-39
2023/05/25 04:06:11;;;;;;;15.40;10.50;;;;;;;17.60;64.51;99436.02;107444;1253;71138;-39
2023/05/25 04:08:40;;;;;;;15.60;10.70;;;;;;;17.63;64.86;99436.64;107535;1254;61693;-39
2023/05/25 04:11:08;;;;;;;13.30;10.00;;;;;;;17.71;64.88;99438.13;107476;1254;60310;-39
2023/05/25 04:13:38;;;;;;;12.10;9.60;;;;;;;17.77;64.55;99436.75;107522;1254;74903;-39
2023/05/25 04:16:09;;;;;;;13.60;9.50;;;;;;;17.82;64.31;99437.10;107384;1259;67566;-39
2023/05/25 04:18:37;;;;;;;14.10;9.70;;;;;;;17.85;64.11;99437.69;107487;1254;72690;-39
2023/05/25 04:21:05;;;;;;;15.20;9.90;;;;;;;17.90;64.18;99438.52;107671;1254;60271;-39
2023/05/25 04:23:32;;;;;;;14.60;9.70;;;;;;;17.94;64.12;99440.36;107569;1253;59892;-39
2023/05/25 04:26:00;;;;;;;17.80;9.30;;;;;;;18.00;64.22;99441.39;107547;1253;73822;-39
2023/05/25 04:28:28;;;;;;;10.10;8.50;;;;;;;18.06;64.28;99444.16;107583;1253;66659;-39
2023/05/25 04:31:18;;;;;;;12.80;8.60;;;;;;;18.17;64.00;99446.63;107477;1258;71314;-39
2023/05/25 04:33:51;;;;;;;10.30;8.50;;;;;;;18.26;63.56;99446.77;107516;1253;60420;-39
2023/05/25 04:36:31;;;;;;;13.80;8.70;;;;;;;18.35;63.45;99440.31;107492;1254;60428;-39
2023/05/25 04:39:01;;;;;;;13.50;8.80;;;;;;;18.45;62.99;99440.42;107412;1254;73888;-39
2023/05/25 04:41:30;;;;;;;9.80;8.20;;;;;;;18.55;62.70;99440.16;107357;1254;67704;-40
2023/05/25 04:44:02;;;;;;;11.80;8.20;;;;;;;18.63;62.45;99438.20;107505;1254;71351;-40
2023/05/25 04:46:45;;;;;;;11.40;8.80;;;;;;;18.71;62.36;99437.55;107491;1252;60132;-40
2023/05/25 04:49:28;;;;;;;10.00;8.10;;;;;;;18.78;62.01;99438.41;107485;1253;60718;-39
2023/05/25 04:51:55;;;;;;;10.00;7.50;;;;;;;18.85;61.62;99439.58;107382;1254;72592;-39
2023/05/25 04:54:24;;;;;;;13.10;7.60;;;;;;;18.93;61.41;99441.20;107500;1253;66614;-39
2023/05/25 04:56:52;;;;;;;15.00;7.50;;;;;;;19.01;61.00;99438.41;107639;1253;72720;-39
2023/05/25 04:59:20;;;;;;;10.80;6.60;;;;;;;19.09;60.90;99434.68;107374;1257;60533;-39
2023/05/25 05:01:47;;;;;;;7.60;5.90;;;;;;;19.20;60.32;99434.21;107508;1257;59261;-39
2023/05/25 05:04:17;;;;;;;10.60;6.70;;;;;;;19.34;60.67;99435.26;107586;1253;72538;-39
2023/05/25 05:06:45;;;;;;;13.40;6.40;;;;;;;19.45;60.67;99436.73;107456;1254;66299;-39
2023/05/25 05:09:17;;;;;;;9.60;6.30;;;;;;;19.58;59.75;99440.56;107550;1254;71384;-39
2023/05/25 05:11:45;;;;;;;8.40;6.70;;;;;;;19.69;59.52;99442.81;107485;1254;60415;-39
2023/05/25 05:14:13;;;;;;;9.70;6.50;;;;;;;19.82;58.81;99440.94;107558;1253;60284;-39
2023/05/25 05:16:43;;;;;;;8.30;6.10;;;;;;;19.94;58.28;99439.55;107479;1254;72551;-39
2023/05/25 05:19:11;;;;;;;8.70;6.30;;;;;;;20.06;58.25;99440.20;107541;1258;66620;-39
2023/05/25 05:21:40;;;;;;;11.40;6.20;;;;;;;20.17;57.90;99441.81;107467;1254;71382;-40
2023/05/25 05:24:08;;;;;;;9.40;6.00;;;;;;;20.26;57.84;99441.39;107595;1253;60280;-39
2023/05/25 05:26:37;;;;;;;8.30;6.00;;;;;;;20.37;57.55;99440.27;107351;1259;60425;-39
2023/05/25 05:29:27;;;;;;;9.20;5.90;;;;;;;20.49;57.22;99440.73;107511;1254;72584;-39
2023/05/25 05:31:55;;;;;;;7.80;5.50;;;;;;;20.57;56.97;99442.39;107472;1258;66304;-39
2023/05/25 05:34:23;;;;;;;9.90;6.30;;;;;;;20.66;56.62;99443.54;107574;1257;72955;-39
2023/05/25 05:36:51;;;;;;;8.90;5.60;;;;;;;20.76;56.55;99445.05;107494;1254;60364;-39
2023/05/25 05:39:26;;;;;;;9.50;5.40;;;;;;;20.86;56.70;99446.42;107617;1254;59292;-39
2023/05/25 05:41:53;;;;;;;8.00;5.60;;;;;;;20.97;55.70;99445.88;107492;1253;73839;-39
2023/05/25 05:44:21;;;;;;;9.20;5.70;;;;;;;21.08;55.53;99447.67;107514;1253;67602;-40
2023/05/25 05:46:59;;;;;;;6.70;5.40;;;;;;;21.20;55.06;99447.67;107521;1256;72733;-39
2023/05/25 05:49:29;;;;;;;12.70;5.90;;;;;;;21.31;53.99;99444.67;107371;1253;60527;-40
2023/05/25 05:51:57;;;;;;;14.70;6.20;;;;;;;21.40;53.81;99449.10;107400;1253;60505;-40
2023/05/25 05:54:26;;;;;;;9.60;6.40;;;;;;;21.49;54.10;99450.00;107522;1253;73842;-40
2023/05/25 05:56:55;;;;;;;7.30;5.40;;;;;;;21.58;54.27;99448.27;107593;1253;67332;-39
2023/05/25 05:59:23;;;;;;;8.60;5.30;;;;;;;21.67;53.64;99450.41;107513;1254;72656;-39
2023/05/25 06:01:50;;;;;;;7.70;5.20;;;;;;;21.78;53.14;99449.52;107435;1253;60621;-39
2023/05/25 06:04:19;;;;;;;6.20;5.00;;;;;;;21.87;52.64;99450.45;107369;1254;60314;-39
2023/05/25 06:06:46;;;;;;;9.60;5.30;;;;;;;21.98;52.71;99454.38;107458;1253;73847;-39
2023/05/25 06:09:14;;;;;;;13.80;4.70;;;;;;;22.10;52.04;99456.13;107513;1254;67871;-40
2023/05/25 06:11:41;;;;;;;8.40;5.10;;;;;;;22.24;51.08;99456.16;107564;1254;72699;-39
2023/05/25 06:14:10;;;;;;;8.40;4.30;;;;;;;22.36;50.54;99457.15;107463;1254;60437;-39
2023/05/25 06:16:37;;;;;;;7.50;4.90;;;;;;;22.48;50.23;99456.90;107484;1255;59988;-39
2023/05/25 06:19:05;;;;;;;7.40;4.70;;;;;;;22.59;50.02;99454.38;107521;1253;73895;-39
2023/05/25 06:21:33;;;;;;;7.10;4.30;;;;;;;22.70;49.86;99457.79;107406;1254;67566;-39
2023/05/25 06:24:00;;;;;;;6.10;4.50;;;;;;;22.79;49.23;99450.65;107570;1254;72667;-40
2023/05/25 06:26:32;;;;;;;6.30;4.80;;;;;;;22.89;48.99;99448.55;107492;1253;60302;-40
2023/05/25 06:28:59;;;;;;;7.90;3.90;;;;;;;23.02;48.18;99447.05;107453;1254;60329;-40
2023/05/25 06:31:27;;;;;;;7.80;4.30;;;;;;;23.13;47.98;99446.96;107277;1254;74158;-40
2023/05/25 06:33:55;;;;;;;6.60;4.40;;;;;;;23.23;47.46;99446.40;107288;1254;66307;-40
2023/05/25 06:36:22;;;;;;;5.70;4.40;;;;;;;23.35;47.70;99448.88;107369;1254;71386;-40
2023/05/25 06:41:20;;;;;;;12.90;4.80;;;;;;;23.54;46.82;99455.48;104076;1291;600292;-40
2023/05/25 06:43:48;;;;;;;6.70;4.40;;;;;;;23.63;46.63;99451.00;106635;1269;59281;-39
2023/05/25 06:46:25;;;;;;;6.80;4.20;;;;;;;23.73;46.50;99450.89;106646;1266;59216;-40
2023/05/25 06:48:53;;;;;;;6.80;4.70;;;;;;;23.80;46.25;99448.46;106606;1267;72294;-39
2023/05/25 06:51:20;;;;;;;7.90;4.70;;;;;;;23.87;45.88;99453.67;106578;1266;67552;-40
2023/05/25 06:53:49;;;;;;;7.90;4.20;;;;;;;23.98;45.99;99453.65;106415;1266;265907;-40
2023/05/25 06:56:16;;;;;;;9.00;4.50;;;;;;;24.07;45.56;99456.81;106849;1262;59505;-40
2023/05/25 06:58:45;;;;;;;22.00;11.00;;;;;;;24.17;44.90;99457.51;106706;1266;60021;-40
2023/05/25 07:01:12;;;;;;;12.20;6.10;;;;;;;24.26;44.88;99460.14;106700;1264;71453;-40
2023/05/25 07:03:40;;;;;;;6.80;4.40;;;;;;;24.35;44.40;99462.02;106685;1265;67615;-40
2023/05/25 07:06:10;;;;;;;7.50;4.70;;;;;;;24.43;44.24;99458.71;106625;1268;72769;-40
2023/05/25 07:08:37;;;;;;;8.70;4.30;;;;;;;24.52;44.00;99456.03;106805;1264;60182;-39
2023/05/25 07:11:09;;;;;;;9.00;4.30;;;;;;;24.59;43.50;99455.02;106843;1263;60013;-39
2023/05/25 07:13:36;;;;;;;8.00;4.80;;;;;;;24.65;43.49;99454.89;106676;1263;71890;-40
2023/05/25 07:16:04;;;;;;;8.60;4.50;;;;;;;24.75;43.51;99459.22;106645;1266;67933;-39
2023/05/25 07:18:32;;;;;;;8.40;3.90;;;;;;;24.84;42.48;99459.69;106625;1265;72696;-40
2023/05/25 07:21:00;;;;;;;6.80;4.20;;;;;;;24.93;42.03;99461.02;106659;1266;59626;-39
2023/05/25 07:23:27;;;;;;;8.80;4.30;;;;;;;25.01;42.34;99461.90;106692;1265;60289;-39
2023/05/25 07:25:55;;;;;;;9.80;4.10;;;;;;;25.09;42.32;99461.83;106750;1270;72998;-40
2023/05/25 07:28:23;;;;;;;9.60;5.00;;;;;;;25.16;41.15;99460.67;106749;1265;67741;-40
2023/05/25 07:30:51;;;;;;;4.90;3.60;;;;;;;25.23;41.16;99463.27;106735;1266;72740;-40
2023/05/25 07:33:18;;;;;;;8.80;4.00;;;;;;;25.29;39.30;99459.78;106676;1265;60050;-40
2023/05/25 07:35:46;;;;;;;6.80;3.80;;;;;;;25.35;38.67;99460.66;106886;1262;60050;-40
2023/05/25 07:38:13;;;;;;;7.30;3.90;;;;;;;25.41;39.01;99460.25;106880;1262;73138;-40
2023/05/25 07:40:41;;;;;;;7.40;3.80;;;;;;;25.51;39.35;99459.14;106888;1262;67589;-39
2023/05/25 07:43:08;;;;;;;7.00;3.90;;;;;;;25.61;38.73;99456.23;106890;1262;71579;-40
2023/05/25 07:45:36;;;;;;;7.50;4.00;;;;;;;25.64;38.41;99454.89;106885;1262;60393;-40
2023/05/25 07:48:05;;;;;;;6.40;3.80;;;;;;;25.64;36.96;99457.76;107260;1257;60043;-40
2023/05/25 07:50:34;;;;;;;7.80;3.80;;;;;;;25.67;36.31;99456.71;107095;1259;73075;-40
2023/05/25 07:53:01;;;;;;;6.10;3.30;;;;;;;25.75;36.69;99458.02;107127;1257;67656;-40
2023/05/25 07:55:29;;;;;;;5.20;3.40;;;;;;;25.85;33.19;99446.35;107100;1258;72475;-40
2023/05/25 07:57:57;;;;;;;8.90;4.50;;;;;;;25.94;32.38;99450.50;107073;1257;60198;-40
2023/05/25 08:00:24;;;;;;;6.60;3.50;;;;;;;26.03;32.86;99453.54;107106;1259;60009;-39
2023/05/25 08:02:52;;;;;;;4.10;3.10;;;;;;;26.00;32.27;99451.73;107211;1258;73107;-40
2023/05/25 08:05:20;;;;;;;4.70;3.50;;;;;;;25.89;32.54;99458.15;107117;1260;67579;-40
2023/05/25 08:07:48;;;;;;;5.20;3.40;;;;;;;25.82;32.70;99446.15;107215;1257;71496;-41
2023/05/25 08:10:15;;;;;;;4.10;3.70;;;;;;;25.87;33.12;99442.77;107088;1259;60088;-40
2023/05/25 08:12:43;;;;;;;7.00;3.40;;;;;;;26.02;33.81;99445.85;107073;1259;60003;-40
2023/05/25 08:15:16;;;;;;;5.20;3.50;;;;;;;26.23;32.05;99447.75;107225;1260;73092;-39
2023/05/25 08:17:44;;;;;;;5.00;3.30;;;;;;;26.38;32.13;99441.20;107112;1259;67767;-39
2023/05/25 08:20:13;;;;;;;6.80;3.50;;;;;;;26.53;31.57;99446.84;107196;1257;72727;-39
2023/05/25 08:22:41;;;;;;;4.40;3.30;;;;;;;26.65;31.16;99440.79;107226;1257;60075;-40
2023/05/25 08:25:10;;;;;;;7.80;3.50;;;;;;;26.75;30.86;99439.91;107096;1258;59517;-39
2023/05/25 08:27:37;;;;;;;3.70;3.20;;;;;;;26.88;30.14;99442.85;107075;1259;74164;-40
2023/05/25 08:30:06;;;;;;;6.50;3.40;;;;;;;26.99;30.59;99441.02;107039;1259;66903;-40
2023/05/25 08:32:34;;;;;;;3.70;3.00;;;;;;;27.10;30.08;99436.49;107121;1259;71384;-41
2023/05/25 08:35:02;;;;;;;6.80;3.30;;;;;;;27.22;29.65;99439.81;106964;1263;60128;-40
2023/05/25 08:37:33;;;;;;;4.20;3.00;;;;;;;27.27;27.99;99441.23;107000;1259;59503;-40
2023/05/25 08:40:01;;;;;;;5.40;3.40;;;;;;;27.22;28.77;99441.88;107165;1259;73039;-41
2023/05/25 08:42:29;;;;;;;10.00;3.60;;;;;;;27.15;28.79;99437.87;107066;1259;67058;-39
2023/05/25 08:44:57;;;;;;;7.40;3.20;;;;;;;27.13;28.95;99438.17;107246;1258;72697;-39
2023/05/25 08:47:25;;;;;;;5.50;3.50;;;;;;;27.18;28.89;99437.14;107058;1258;60093;-40
2023/05/25 08:49:53;;;;;;;5.60;3.50;;;;;;;27.25;29.84;99433.77;107066;1258;59539;-39
2023/05/25 08:52:22;;;;;;;4.60;3.60;;;;;;;27.36;29.16;99432.94;107002;1259;72440;-40
2023/05/25 08:54:50;;;;;;;5.40;3.70;;;;;;;27.45;30.10;99434.41;107202;1256;66311;-40
2023/05/25 08:57:53;;;;;;;5.50;3.60;;;;;;;27.55;30.23;99435.46;107139;1259;72741;-40
2023/05/25 09:00:24;;;;;;;9.60;3.20;;;;;;;27.55;29.91;99433.29;106867;1259;60085;-40
2023/05/25 09:02:55;;;;;;;4.10;3.30;;;;;;;27.41;29.58;99437.41;107232;1256;59603;-40
2023/05/25 09:05:23;;;;;;;3.10;2.80;;;;;;;27.19;29.66;99439.38;107351;1256;73108;-40
2023/05/25 09:07:52;;;;;;;4.90;2.90;;;;;;;27.04;29.62;99432.74;107292;1256;67986;-41
2023/05/25 09:10:20;;;;;;;5.30;3.60;;;;;;;27.05;29.85;99435.45;107060;1256;71422;-40
2023/05/25 09:12:48;;;;;;;7.80;3.30;;;;;;;27.12;30.26;99434.87;107073;1256;60091;-40
2023/05/25 09:15:16;;;;;;;6.20;3.30;;;;;;;27.23;30.84;99433.62;107299;1256;60486;-40
2023/05/25 09:17:43;;;;;;;5.00;3.30;;;;;;;27.38;30.89;99432.92;107216;1260;73026;-40
2023/05/25 09:20:12;;;;;;;5.50;3.10;;;;;;;27.52;29.92;99431.05;107281;1256;67204;-40
2023/05/25 09:22:41;;;;;;;4.00;2.90;;;;;;;27.65;29.56;99430.88;107035;1259;72667;-40
2023/05/25 09:25:09;;;;;;;4.20;3.00;;;;;;;27.75;28.37;99426.67;106949;1258;60083;-40
2023/05/25 09:27:37;;;;;;;7.50;3.20;;;;;;;27.82;27.26;99426.31;108202;1256;58734;-40
2023/05/25 09:30:05;;;;;;;5.10;3.00;;;;;;;27.85;27.03;99427.91;107157;1256;73060;-40
2023/05/25 09:32:33;;;;;;;3.00;2.70;;;;;;;27.90;27.56;99428.11;107263;1256;67746;-40
2023/05/25 09:35:08;;;;;;;6.20;3.30;;;;;;;27.95;27.25;99424.02;107230;1257;71376;-40
2023/05/25 09:37:36;;;;;;;3.70;2.80;;;;;;;28.01;27.50;99426.41;107253;1259;59620;-40
2023/05/25 09:40:05;;;;;;;3.70;2.90;;;;;;;28.05;27.11;99423.05;107237;1255;60071;-40
2023/05/25 09:42:32;;;;;;;3.80;2.80;;;;;;;28.12;27.40;99419.29;107259;1256;73090;-40
2023/05/25 09:45:01;;;;;;;5.40;3.00;;;;;;;28.21;27.43;99412.69;107258;1256;67588;-40
2023/05/25 09:47:28;;;;;;;4.20;3.20;;;;;;;28.31;27.73;99403.02;107250;1256;72657;-40
2023/05/25 09:49:56;;;;;;;6.20;3.50;;;;;;;28.38;27.66;99400.39;107122;1256;59430;-40
2023/05/25 09:52:24;;;;;;;3.90;2.90;;;;;;;28.47;28.28;99397.66;107214;1256;59520;-41
2023/05/25 09:54:52;;;;;;;3.90;3.20;;;;;;;28.61;27.14;99390.54;107099;1256;73055;-41
2023/05/25 09:57:20;;;;;;;4.80;3.00;;;;;;;28.71;27.66;99393.98;107244;1256;67558;-40
2023/05/25 09:59:47;;;;;;;6.10;3.10;;;;;;;28.85;27.28;99395.33;107228;1257;72659;-40
2023/05/25 10:02:15;;;;;;;5.40;3.10;;;;;;;28.88;26.92;99392.49;107225;1260;59612;-40
2023/05/25 10:04:43;;;;;;;7.70;3.70;;;;;;;28.88;26.67;99388.58;107157;1257;59564;-41
2023/05/25 10:07:11;;;;;;;4.60;3.30;;;;;;;28.85;26.65;99390.14;107228;1259;72185;-40
2023/05/25 10:09:40;;;;;;;5.20;3.10;;;;;;;28.86;26.80;99383.42;107126;1256;67706;-41
2023/05/25 10:12:08;;;;;;;6.20;3.10;;;;;;;28.91;26.44;99384.52;107252;1256;72705;-40
2023/05/25 10:14:36;;;;;;;4.50;2.90;;;;;;;28.99;26.12;99374.04;107034;1259;59621;-40
2023/05/25 10:17:05;;;;;;;4.70;3.20;;;;;;;29.12;25.64;99374.36;107041;1259;59475;-40
2023/05/25 10:19:40;;;;;;;10.40;3.60;;;;;;;29.22;24.63;99368.88;107248;1259;73051;-40
2023/05/25 10:22:24;;;;;;;4.90;3.10;;;;;;;29.30;24.43;99363.83;107170;1256;66585;-40
2023/05/25 10:25:21;;;;;;;6.60;3.20;;;;;;;29.36;24.61;99361.08;107001;1259;72719;-40
2023/05/25 10:27:56;;;;;;;4.50;3.20;;;;;;;29.46;23.67;99357.86;107044;1256;59289;-41
2023/05/25 10:30:26;;;;;;;3.90;2.80;;;;;;;29.56;24.03;99356.88;107088;1259;60049;-41
2023/05/25 10:32:54;;;;;;;6.00;3.00;;;;;;;29.73;24.63;99356.27;106998;1256;73044;-40
2023/05/25 10:35:23;;;;;;;8.40;3.70;;;;;;;29.98;24.88;99352.00;107182;1259;68828;-40
2023/05/25 10:37:52;;;;;;;9.60;3.80;;;;;;;30.23;25.34;99355.16;107049;1259;72719;-40
2023/05/25 10:40:21;;;;;;;8.00;3.30;;;;;;;30.41;25.38;99352.84;107163;1256;60155;-40
2023/05/25 10:42:50;;;;;;;8.70;3.50;;;;;;;30.46;25.23;99352.60;107237;1258;59908;-40
2023/05/25 10:45:18;;;;;;;15.30;7.20;;;;;;;30.38;25.98;99355.61;107044;1257;71754;-40
2023/05/25 10:47:45;;;;;;;8.40;3.70;;;;;;;30.36;26.37;99356.45;107090;1259;68385;-41
2023/05/25 10:50:26;;;;;;;8.90;3.50;;;;;;;30.33;25.90;99359.73;107039;1258;72675;-40
2023/05/25 10:53:08;;;;;;;3.70;2.80;;;;;;;30.28;26.02;99352.95;107019;1261;60333;-41
2023/05/25 10:55:51;;;;;;;5.40;3.60;;;;;;;30.25;26.13;99353.39;107047;1259;60280;-40
2023/05/25 10:58:19;;;;;;;7.00;3.40;;;;;;;30.25;26.49;99347.20;107057;1261;73879;-41
2023/05/25 11:00:57;;;;;;;6.50;3.10;;;;;;;30.31;26.07;99342.11;107216;1256;67910;-40
2023/05/25 11:03:46;;;;;;;4.30;3.30;;;;;;;30.44;25.71;99339.64;107058;1259;71290;-40
2023/05/25 11:06:22;;;;;;;4.60;3.80;;;;;;;30.53;25.32;99341.33;107181;1260;60425;-41
2023/05/25 11:08:54;;;;;;;4.60;3.20;;;;;;;30.70;25.47;99339.36;107073;1262;60050;-41
2023/05/25 11:11:42;;;;;;;4.20;3.20;;;;;;;30.99;25.01;99333.42;107196;1257;73847;-40
2023/05/25 11:14:26;;;;;;;4.10;3.20;;;;;;;31.23;24.12;99331.49;107061;1257;66276;-41
2023/05/25 11:17:10;;;;;;;5.70;3.20;;;;;;;31.37;24.56;99330.95;107127;1260;72798;-41
2023/05/25 11:19:51;;;;;;;6.50;3.10;;;;;;;31.58;24.09;99330.08;107205;1257;60505;-41
2023/05/25 11:22:22;;;;;;;4.50;3.10;;;;;;;31.61;24.13;99328.83;107203;1256;60425;-41
2023/05/25 11:24:51;;;;;;;5.50;3.50;;;;;;;31.64;24.48;99319.77;107194;1256;73857;-41
2023/05/25 11:27:22;;;;;;;4.00;2.90;;;;;;;31.75;24.42;99320.52;107271;1260;68110;-41
2023/05/25 11:29:50;;;;;;;5.10;3.50;;;;;;;31.90;24.05;99325.41;107217;1261;72696;-41
2023/05/25 11:32:18;;;;;;;6.90;3.00;;;;;;;32.17;23.36;99326.14;107193;1256;60188;-41
2023/05/25 11:34:46;;;;;;;7.10;3.40;;;;;;;32.32;22.59;99326.00;107230;1259;60382;-41
2023/05/25 11:37:21;;;;;;;6.60;3.00;;;;;;;32.16;23.21;99332.02;107032;1262;73858;-41